sensor_id;sensor_type;location;lat;lon;timestamp;P1;durP1;ratioP1;P2;durP2;ratioP2
12921;SDS011;6528;48.086;16.282;2023-12-04T00:02:01;2.50;;;2.40;;
12921;SDS011;6528;48.086;16.282;2023-12-04T00:04:29;2.57;;;2.37;;
12921;SDS011;6528;48.086;16.282;2023-12-04T00:06:58;2.40;;;2.20;;
12921;SDS011;6528;48.086;16.282;2023-12-04T00:09:26;2.60;;;2.40;;
12921;SDS011;6528;48.086;16.282;2023-12-04T00:11:54;2.60;;;2.40;;
12921;SDS011;6528;48.086;16.282;2023-12-04T00:14:21;1.90;;;1.80;;
12921;SDS011;6528;48.086;16.282;2023-12-04T00:16:49;1.93;;;1.83;;
12921;SDS011;6528;48.086;16.282;2023-12-04T00:19:16;2.70;;;2.50;;
12921;SDS011;6528;48.086;16.282;2023-12-04T00:21:43;2.70;;;2.50;;
12921;SDS011;6528;48.086;16.282;2023-12-04T00:24:10;2.40;;;2.20;;
12921;SDS011;6528;48.086;16.282;2023-12-04T00:26:38;2.60;;;2.30;;
12921;SDS011;6528;48.086;16.282;2023-12-04T00:29:05;2.53;;;2.33;;
12921;SDS011;6528;48.086;16.282;2023-12-04T00:31:33;2.50;;;2.30;;
12921;SDS011;6528;48.086;16.282;2023-12-04T00:34:00;2.77;;;2.57;;
12921;SDS011;6528;48.086;16.282;2023-12-04T00:36:28;2.67;;;2.47;;
12921;SDS011;6528;48.086;16.282;2023-12-04T00:38:55;2.63;;;2.43;;
12921;SDS011;6528;48.086;16.282;2023-12-04T00:41:22;2.77;;;2.57;;
12921;SDS011;6528;48.086;16.282;2023-12-04T00:43:50;2.40;;;2.30;;
12921;SDS011;6528;48.086;16.282;2023-12-04T00:46:18;2.77;;;2.57;;
12921;SDS011;6528;48.086;16.282;2023-12-04T00:48:45;2.60;;;2.40;;
12921;SDS011;6528;48.086;16.282;2023-12-04T00:51:13;2.07;;;1.97;;
12921;SDS011;6528;48.086;16.282;2023-12-04T00:53:41;2.73;;;2.60;;
12921;SDS011;6528;48.086;16.282;2023-12-04T00:56:09;1.90;;;1.80;;
12921;SDS011;6528;48.086;16.282;2023-12-04T00:58:38;2.20;;;2.10;;
12921;SDS011;6528;48.086;16.282;2023-12-04T01:01:05;2.80;;;2.60;;
12921;SDS011;6528;48.086;16.282;2023-12-04T01:03:33;2.40;;;2.30;;
12921;SDS011;6528;48.086;16.282;2023-12-04T01:06:00;2.07;;;1.97;;
12921;SDS011;6528;48.086;16.282;2023-12-04T01:08:28;2.57;;;2.37;;
12921;SDS011;6528;48.086;16.282;2023-12-04T01:10:55;1.70;;;1.60;;
12921;SDS011;6528;48.086;16.282;2023-12-04T01:13:23;2.20;;;2.10;;
12921;SDS011;6528;48.086;16.282;2023-12-04T01:15:50;2.40;;;2.30;;
12921;SDS011;6528;48.086;16.282;2023-12-04T01:18:18;2.50;;;2.40;;
12921;SDS011;6528;48.086;16.282;2023-12-04T01:20:45;2.33;;;2.00;;
12921;SDS011;6528;48.086;16.282;2023-12-04T01:23:12;2.43;;;2.30;;
12921;SDS011;6528;48.086;16.282;2023-12-04T01:25:39;2.10;;;2.00;;
12921;SDS011;6528;48.086;16.282;2023-12-04T01:28:07;2.17;;;2.07;;
12921;SDS011;6528;48.086;16.282;2023-12-04T01:30:34;2.23;;;2.13;;
12921;SDS011;6528;48.086;16.282;2023-12-04T01:33:02;2.33;;;2.10;;
12921;SDS011;6528;48.086;16.282;2023-12-04T01:35:30;2.43;;;2.23;;
12921;SDS011;6528;48.086;16.282;2023-12-04T01:37:57;2.13;;;2.03;;
12921;SDS011;6528;48.086;16.282;2023-12-04T01:40:25;2.17;;;2.07;;
12921;SDS011;6528;48.086;16.282;2023-12-04T01:42:54;2.53;;;2.33;;
12921;SDS011;6528;48.086;16.282;2023-12-04T01:45:22;2.13;;;2.03;;
12921;SDS011;6528;48.086;16.282;2023-12-04T01:47:49;2.20;;;1.93;;
12921;SDS011;6528;48.086;16.282;2023-12-04T01:50:17;2.37;;;2.27;;
12921;SDS011;6528;48.086;16.282;2023-12-04T01:52:44;2.10;;;2.00;;
12921;SDS011;6528;48.086;16.282;2023-12-04T01:55:13;2.60;;;2.40;;
12921;SDS011;6528;48.086;16.282;2023-12-04T01:57:41;2.23;;;2.03;;
12921;SDS011;6528;48.086;16.282;2023-12-04T02:00:10;2.50;;;2.30;;
12921;SDS011;6528;48.086;16.282;2023-12-04T02:02:39;1.90;;;1.73;;
12921;SDS011;6528;48.086;16.282;2023-12-04T02:05:07;2.33;;;2.23;;
12921;SDS011;6528;48.086;16.282;2023-12-04T02:07:35;2.30;;;2.20;;
12921;SDS011;6528;48.086;16.282;2023-12-04T02:10:06;2.20;;;2.10;;
12921;SDS011;6528;48.086;16.282;2023-12-04T02:12:34;2.20;;;2.10;;
12921;SDS011;6528;48.086;16.282;2023-12-04T02:15:02;1.80;;;1.70;;
12921;SDS011;6528;48.086;16.282;2023-12-04T02:17:30;2.00;;;1.90;;
12921;SDS011;6528;48.086;16.282;2023-12-04T02:19:59;1.87;;;1.77;;
12921;SDS011;6528;48.086;16.282;2023-12-04T02:22:28;2.37;;;2.20;;
12921;SDS011;6528;48.086;16.282;2023-12-04T02:24:55;1.67;;;1.57;;
12921;SDS011;6528;48.086;16.282;2023-12-04T02:27:33;2.40;;;2.30;;
12921;SDS011;6528;48.086;16.282;2023-12-04T02:30:07;2.17;;;2.07;;
12921;SDS011;6528;48.086;16.282;2023-12-04T02:32:42;2.13;;;2.03;;
12921;SDS011;6528;48.086;16.282;2023-12-04T02:35:13;1.77;;;1.67;;
12921;SDS011;6528;48.086;16.282;2023-12-04T02:37:44;1.83;;;1.73;;
12921;SDS011;6528;48.086;16.282;2023-12-04T02:40:12;1.80;;;1.70;;
12921;SDS011;6528;48.086;16.282;2023-12-04T02:42:40;1.83;;;1.73;;
12921;SDS011;6528;48.086;16.282;2023-12-04T02:45:08;1.70;;;1.60;;
12921;SDS011;6528;48.086;16.282;2023-12-04T02:47:35;1.97;;;1.87;;
12921;SDS011;6528;48.086;16.282;2023-12-04T02:50:03;1.80;;;1.70;;
12921;SDS011;6528;48.086;16.282;2023-12-04T02:52:30;1.90;;;1.80;;
12921;SDS011;6528;48.086;16.282;2023-12-04T02:54:58;2.10;;;2.00;;
12921;SDS011;6528;48.086;16.282;2023-12-04T02:57:25;2.10;;;2.00;;
12921;SDS011;6528;48.086;16.282;2023-12-04T02:59:53;1.83;;;1.73;;
12921;SDS011;6528;48.086;16.282;2023-12-04T03:02:20;2.33;;;2.10;;
12921;SDS011;6528;48.086;16.282;2023-12-04T03:04:48;2.10;;;1.57;;
12921;SDS011;6528;48.086;16.282;2023-12-04T03:07:15;1.90;;;1.80;;
12921;SDS011;6528;48.086;16.282;2023-12-04T03:09:42;1.97;;;1.87;;
12921;SDS011;6528;48.086;16.282;2023-12-04T03:12:15;1.90;;;1.80;;
12921;SDS011;6528;48.086;16.282;2023-12-04T03:14:44;1.73;;;1.63;;
12921;SDS011;6528;48.086;16.282;2023-12-04T03:17:13;1.80;;;1.70;;
12921;SDS011;6528;48.086;16.282;2023-12-04T03:19:40;1.67;;;1.57;;
12921;SDS011;6528;48.086;16.282;2023-12-04T03:22:08;2.27;;;2.07;;
12921;SDS011;6528;48.086;16.282;2023-12-04T03:24:35;1.93;;;1.80;;
12921;SDS011;6528;48.086;16.282;2023-12-04T03:27:03;2.20;;;2.00;;
12921;SDS011;6528;48.086;16.282;2023-12-04T03:29:30;1.50;;;1.40;;
12921;SDS011;6528;48.086;16.282;2023-12-04T03:31:58;1.70;;;1.60;;
12921;SDS011;6528;48.086;16.282;2023-12-04T03:34:25;1.80;;;1.70;;
12921;SDS011;6528;48.086;16.282;2023-12-04T03:36:53;1.67;;;1.57;;
12921;SDS011;6528;48.086;16.282;2023-12-04T03:39:20;1.80;;;1.70;;
12921;SDS011;6528;48.086;16.282;2023-12-04T03:41:48;1.73;;;1.50;;
12921;SDS011;6528;48.086;16.282;2023-12-04T03:44:15;1.90;;;1.80;;
12921;SDS011;6528;48.086;16.282;2023-12-04T03:46:43;1.50;;;1.40;;
12921;SDS011;6528;48.086;16.282;2023-12-04T03:49:10;1.80;;;1.70;;
12921;SDS011;6528;48.086;16.282;2023-12-04T03:51:38;2.10;;;2.00;;
12921;SDS011;6528;48.086;16.282;2023-12-04T03:54:06;1.70;;;1.60;;
12921;SDS011;6528;48.086;16.282;2023-12-04T03:56:33;1.80;;;1.70;;
12921;SDS011;6528;48.086;16.282;2023-12-04T03:59:02;1.60;;;1.50;;
12921;SDS011;6528;48.086;16.282;2023-12-04T04:01:29;1.73;;;1.63;;
12921;SDS011;6528;48.086;16.282;2023-12-04T04:03:57;1.73;;;1.63;;
12921;SDS011;6528;48.086;16.282;2023-12-04T04:06:25;2.10;;;1.90;;
12921;SDS011;6528;48.086;16.282;2023-12-04T04:08:53;2.17;;;2.07;;
12921;SDS011;6528;48.086;16.282;2023-12-04T04:11:21;1.50;;;1.40;;
12921;SDS011;6528;48.086;16.282;2023-12-04T04:13:48;1.93;;;1.83;;
12921;SDS011;6528;48.086;16.282;2023-12-04T04:16:16;2.00;;;1.90;;
12921;SDS011;6528;48.086;16.282;2023-12-04T04:18:44;1.67;;;1.57;;
12921;SDS011;6528;48.086;16.282;2023-12-04T04:21:11;1.70;;;1.60;;
12921;SDS011;6528;48.086;16.282;2023-12-04T04:23:39;2.40;;;1.70;;
12921;SDS011;6528;48.086;16.282;2023-12-04T04:26:06;1.77;;;1.67;;
12921;SDS011;6528;48.086;16.282;2023-12-04T04:28:34;2.07;;;1.87;;
12921;SDS011;6528;48.086;16.282;2023-12-04T04:31:02;1.87;;;1.77;;
12921;SDS011;6528;48.086;16.282;2023-12-04T04:33:30;1.97;;;1.87;;
12921;SDS011;6528;48.086;16.282;2023-12-04T04:35:57;1.73;;;1.63;;
12921;SDS011;6528;48.086;16.282;2023-12-04T04:38:25;1.60;;;1.50;;
12921;SDS011;6528;48.086;16.282;2023-12-04T04:40:53;2.03;;;1.93;;
12921;SDS011;6528;48.086;16.282;2023-12-04T04:43:20;1.20;;;1.20;;
12921;SDS011;6528;48.086;16.282;2023-12-04T04:45:48;1.60;;;1.50;;
12921;SDS011;6528;48.086;16.282;2023-12-04T04:48:15;1.40;;;1.30;;
12921;SDS011;6528;48.086;16.282;2023-12-04T04:50:43;1.60;;;1.50;;
12921;SDS011;6528;48.086;16.282;2023-12-04T04:53:10;1.70;;;1.60;;
12921;SDS011;6528;48.086;16.282;2023-12-04T04:55:38;2.10;;;1.90;;
12921;SDS011;6528;48.086;16.282;2023-12-04T04:58:14;1.87;;;1.77;;
12921;SDS011;6528;48.086;16.282;2023-12-04T05:00:43;1.60;;;1.50;;
12921;SDS011;6528;48.086;16.282;2023-12-04T05:03:12;1.50;;;1.40;;
12921;SDS011;6528;48.086;16.282;2023-12-04T05:05:39;1.73;;;1.50;;
12921;SDS011;6528;48.086;16.282;2023-12-04T05:08:07;1.90;;;1.80;;
12921;SDS011;6528;48.086;16.282;2023-12-04T05:10:37;1.80;;;1.70;;
12921;SDS011;6528;48.086;16.282;2023-12-04T05:13:08;1.37;;;1.27;;
12921;SDS011;6528;48.086;16.282;2023-12-04T05:15:36;2.33;;;1.60;;
12921;SDS011;6528;48.086;16.282;2023-12-04T05:18:03;1.27;;;1.23;;
12921;SDS011;6528;48.086;16.282;2023-12-04T05:20:31;1.43;;;1.43;;
12921;SDS011;6528;48.086;16.282;2023-12-04T05:22:59;1.77;;;1.67;;
12921;SDS011;6528;48.086;16.282;2023-12-04T05:25:26;2.00;;;1.87;;
12921;SDS011;6528;48.086;16.282;2023-12-04T05:28:03;1.90;;;1.80;;
12921;SDS011;6528;48.086;16.282;2023-12-04T05:30:32;1.80;;;1.70;;
12921;SDS011;6528;48.086;16.282;2023-12-04T05:32:59;1.40;;;1.30;;
12921;SDS011;6528;48.086;16.282;2023-12-04T05:35:27;1.47;;;1.37;;
12921;SDS011;6528;48.086;16.282;2023-12-04T05:37:55;1.80;;;1.70;;
12921;SDS011;6528;48.086;16.282;2023-12-04T05:40:22;1.80;;;1.70;;
12921;SDS011;6528;48.086;16.282;2023-12-04T05:42:49;1.90;;;1.80;;
12921;SDS011;6528;48.086;16.282;2023-12-04T05:45:16;2.20;;;2.00;;
12921;SDS011;6528;48.086;16.282;2023-12-04T05:47:44;1.70;;;1.60;;
12921;SDS011;6528;48.086;16.282;2023-12-04T05:50:11;1.70;;;1.60;;
12921;SDS011;6528;48.086;16.282;2023-12-04T05:52:38;1.80;;;1.70;;
12921;SDS011;6528;48.086;16.282;2023-12-04T05:55:06;1.80;;;1.70;;
12921;SDS011;6528;48.086;16.282;2023-12-04T05:57:34;1.40;;;1.30;;
12921;SDS011;6528;48.086;16.282;2023-12-04T06:00:01;1.80;;;1.70;;
12921;SDS011;6528;48.086;16.282;2023-12-04T06:02:29;1.90;;;1.80;;
12921;SDS011;6528;48.086;16.282;2023-12-04T06:04:57;1.90;;;1.80;;
12921;SDS011;6528;48.086;16.282;2023-12-04T06:07:25;1.57;;;1.47;;
12921;SDS011;6528;48.086;16.282;2023-12-04T06:09:51;1.87;;;1.77;;
12921;SDS011;6528;48.086;16.282;2023-12-04T06:12:19;1.80;;;1.70;;
12921;SDS011;6528;48.086;16.282;2023-12-04T06:14:47;2.20;;;1.93;;
12921;SDS011;6528;48.086;16.282;2023-12-04T06:17:14;1.70;;;1.60;;
12921;SDS011;6528;48.086;16.282;2023-12-04T06:19:42;1.73;;;1.63;;
12921;SDS011;6528;48.086;16.282;2023-12-04T06:22:10;1.53;;;1.43;;
12921;SDS011;6528;48.086;16.282;2023-12-04T06:24:38;1.60;;;1.50;;
12921;SDS011;6528;48.086;16.282;2023-12-04T06:27:07;1.87;;;1.77;;
12921;SDS011;6528;48.086;16.282;2023-12-04T06:29:35;1.93;;;1.77;;
12921;SDS011;6528;48.086;16.282;2023-12-04T06:32:03;4.60;;;2.10;;
12921;SDS011;6528;48.086;16.282;2023-12-04T06:34:32;3.97;;;2.73;;
12921;SDS011;6528;48.086;16.282;2023-12-04T06:37:01;2.80;;;2.60;;
12921;SDS011;6528;48.086;16.282;2023-12-04T06:39:32;2.43;;;1.90;;
12921;SDS011;6528;48.086;16.282;2023-12-04T06:42:00;2.60;;;2.33;;
12921;SDS011;6528;48.086;16.282;2023-12-04T06:44:28;2.43;;;2.10;;
12921;SDS011;6528;48.086;16.282;2023-12-04T06:46:55;3.43;;;2.37;;
12921;SDS011;6528;48.086;16.282;2023-12-04T06:49:27;3.67;;;2.40;;
12921;SDS011;6528;48.086;16.282;2023-12-04T06:51:59;2.20;;;2.00;;
12921;SDS011;6528;48.086;16.282;2023-12-04T06:54:27;4.53;;;2.30;;
12921;SDS011;6528;48.086;16.282;2023-12-04T06:56:55;2.07;;;1.87;;
12921;SDS011;6528;48.086;16.282;2023-12-04T06:59:22;3.17;;;2.87;;
12921;SDS011;6528;48.086;16.282;2023-12-04T07:01:49;3.03;;;2.53;;
12921;SDS011;6528;48.086;16.282;2023-12-04T07:04:17;2.90;;;2.60;;
12921;SDS011;6528;48.086;16.282;2023-12-04T07:06:48;2.77;;;2.20;;
12921;SDS011;6528;48.086;16.282;2023-12-04T07:09:16;4.30;;;2.60;;
12921;SDS011;6528;48.086;16.282;2023-12-04T07:11:44;2.70;;;2.50;;
12921;SDS011;6528;48.086;16.282;2023-12-04T07:14:11;4.27;;;2.40;;
12921;SDS011;6528;48.086;16.282;2023-12-04T07:16:42;2.57;;;2.37;;
12921;SDS011;6528;48.086;16.282;2023-12-04T07:19:10;3.33;;;2.67;;
12921;SDS011;6528;48.086;16.282;2023-12-04T07:21:38;2.97;;;2.67;;
12921;SDS011;6528;48.086;16.282;2023-12-04T07:24:06;3.37;;;2.87;;
12921;SDS011;6528;48.086;16.282;2023-12-04T07:26:34;4.23;;;3.13;;
12921;SDS011;6528;48.086;16.282;2023-12-04T07:29:02;2.67;;;2.33;;
12921;SDS011;6528;48.086;16.282;2023-12-04T07:31:30;2.80;;;2.60;;
12921;SDS011;6528;48.086;16.282;2023-12-04T07:33:58;3.80;;;3.10;;
12921;SDS011;6528;48.086;16.282;2023-12-04T07:36:29;3.10;;;2.80;;
12921;SDS011;6528;48.086;16.282;2023-12-04T07:38:57;3.07;;;2.83;;
12921;SDS011;6528;48.086;16.282;2023-12-04T07:41:24;3.80;;;3.50;;
12921;SDS011;6528;48.086;16.282;2023-12-04T07:43:52;3.73;;;3.43;;
12921;SDS011;6528;48.086;16.282;2023-12-04T07:46:21;3.27;;;2.77;;
12921;SDS011;6528;48.086;16.282;2023-12-04T07:48:50;3.37;;;3.07;;
12921;SDS011;6528;48.086;16.282;2023-12-04T07:51:21;3.67;;;3.37;;
12921;SDS011;6528;48.086;16.282;2023-12-04T07:53:49;3.93;;;3.30;;
12921;SDS011;6528;48.086;16.282;2023-12-04T07:56:16;3.63;;;3.33;;
12921;SDS011;6528;48.086;16.282;2023-12-04T07:58:44;2.90;;;2.70;;
12921;SDS011;6528;48.086;16.282;2023-12-04T08:01:12;3.47;;;3.17;;
12921;SDS011;6528;48.086;16.282;2023-12-04T08:03:39;3.93;;;3.53;;
12921;SDS011;6528;48.086;16.282;2023-12-04T08:06:08;4.30;;;3.90;;
12921;SDS011;6528;48.086;16.282;2023-12-04T08:08:35;4.50;;;3.60;;
12921;SDS011;6528;48.086;16.282;2023-12-04T08:11:03;4.57;;;4.20;;
12921;SDS011;6528;48.086;16.282;2023-12-04T08:13:31;4.10;;;3.80;;
12921;SDS011;6528;48.086;16.282;2023-12-04T08:15:58;3.40;;;3.20;;
12921;SDS011;6528;48.086;16.282;2023-12-04T08:18:28;3.83;;;3.53;;
12921;SDS011;6528;48.086;16.282;2023-12-04T08:20:55;4.87;;;4.47;;
12921;SDS011;6528;48.086;16.282;2023-12-04T08:23:26;5.70;;;4.93;;
12921;SDS011;6528;48.086;16.282;2023-12-04T08:25:54;4.60;;;4.07;;
12921;SDS011;6528;48.086;16.282;2023-12-04T08:28:21;4.37;;;3.97;;
12921;SDS011;6528;48.086;16.282;2023-12-04T08:30:49;5.70;;;5.20;;
12921;SDS011;6528;48.086;16.282;2023-12-04T08:33:16;5.53;;;5.03;;
12921;SDS011;6528;48.086;16.282;2023-12-04T08:35:47;5.00;;;4.60;;
12921;SDS011;6528;48.086;16.282;2023-12-04T08:38:14;5.87;;;5.37;;
12921;SDS011;6528;48.086;16.282;2023-12-04T08:40:42;5.20;;;4.80;;
12921;SDS011;6528;48.086;16.282;2023-12-04T08:43:11;4.90;;;4.50;;
12921;SDS011;6528;48.086;16.282;2023-12-04T08:45:39;6.57;;;5.97;;
12921;SDS011;6528;48.086;16.282;2023-12-04T08:48:07;5.83;;;5.43;;
12921;SDS011;6528;48.086;16.282;2023-12-04T08:50:34;6.10;;;5.60;;
12921;SDS011;6528;48.086;16.282;2023-12-04T08:53:04;5.80;;;5.27;;
12921;SDS011;6528;48.086;16.282;2023-12-04T08:55:32;5.83;;;5.33;;
12921;SDS011;6528;48.086;16.282;2023-12-04T08:57:59;6.50;;;5.90;;
12921;SDS011;6528;48.086;16.282;2023-12-04T09:00:27;5.57;;;5.07;;
12921;SDS011;6528;48.086;16.282;2023-12-04T09:02:54;6.43;;;5.80;;
12921;SDS011;6528;48.086;16.282;2023-12-04T09:05:33;6.30;;;5.80;;
12921;SDS011;6528;48.086;16.282;2023-12-04T09:08:01;6.00;;;5.50;;
12921;SDS011;6528;48.086;16.282;2023-12-04T09:10:32;6.97;;;6.37;;
12921;SDS011;6528;48.086;16.282;2023-12-04T09:13:20;7.20;;;6.50;;
12921;SDS011;6528;48.086;16.282;2023-12-04T09:15:47;5.93;;;5.47;;
12921;SDS011;6528;48.086;16.282;2023-12-04T09:18:15;6.70;;;6.00;;
12921;SDS011;6528;48.086;16.282;2023-12-04T09:20:44;6.73;;;6.13;;
12921;SDS011;6528;48.086;16.282;2023-12-04T09:23:12;6.57;;;5.97;;
12921;SDS011;6528;48.086;16.282;2023-12-04T09:25:39;6.67;;;6.17;;
12921;SDS011;6528;48.086;16.282;2023-12-04T09:28:07;6.00;;;5.57;;
12921;SDS011;6528;48.086;16.282;2023-12-04T09:30:35;6.47;;;5.97;;
12921;SDS011;6528;48.086;16.282;2023-12-04T09:33:06;6.00;;;5.50;;
12921;SDS011;6528;48.086;16.282;2023-12-04T09:35:34;6.20;;;5.70;;
12921;SDS011;6528;48.086;16.282;2023-12-04T09:38:01;6.73;;;6.13;;
12921;SDS011;6528;48.086;16.282;2023-12-04T09:40:29;6.90;;;6.30;;
12921;SDS011;6528;48.086;16.282;2023-12-04T09:42:57;6.50;;;5.90;;
12921;SDS011;6528;48.086;16.282;2023-12-04T09:45:25;7.53;;;6.77;;
12921;SDS011;6528;48.086;16.282;2023-12-04T09:47:53;8.20;;;7.50;;
12921;SDS011;6528;48.086;16.282;2023-12-04T09:50:22;8.00;;;6.47;;
12921;SDS011;6528;48.086;16.282;2023-12-04T09:52:50;7.70;;;7.00;;
12921;SDS011;6528;48.086;16.282;2023-12-04T09:55:18;7.27;;;6.57;;
12921;SDS011;6528;48.086;16.282;2023-12-04T09:57:47;7.37;;;6.67;;
12921;SDS011;6528;48.086;16.282;2023-12-04T10:00:15;6.80;;;6.20;;
12921;SDS011;6528;48.086;16.282;2023-12-04T10:02:44;7.43;;;6.83;;
12921;SDS011;6528;48.086;16.282;2023-12-04T10:05:12;6.93;;;6.30;;
12921;SDS011;6528;48.086;16.282;2023-12-04T10:07:40;7.77;;;7.17;;
12921;SDS011;6528;48.086;16.282;2023-12-04T10:10:07;8.00;;;7.30;;
12921;SDS011;6528;48.086;16.282;2023-12-04T10:12:35;7.43;;;6.70;;
12921;SDS011;6528;48.086;16.282;2023-12-04T10:15:05;7.47;;;6.77;;
12921;SDS011;6528;48.086;16.282;2023-12-04T10:17:34;7.57;;;6.97;;
12921;SDS011;6528;48.086;16.282;2023-12-04T10:20:11;8.23;;;7.53;;
12921;SDS011;6528;48.086;16.282;2023-12-04T10:22:40;8.10;;;7.40;;
12921;SDS011;6528;48.086;16.282;2023-12-04T10:25:19;8.70;;;7.30;;
12921;SDS011;6528;48.086;16.282;2023-12-04T10:27:47;7.37;;;6.77;;
12921;SDS011;6528;48.086;16.282;2023-12-04T10:30:48;8.10;;;7.40;;
12921;SDS011;6528;48.086;16.282;2023-12-04T10:33:08;7.73;;;7.03;;
12921;SDS011;6528;48.086;16.282;2023-12-04T10:35:36;7.17;;;6.57;;
12921;SDS011;6528;48.086;16.282;2023-12-04T10:38:05;7.83;;;7.23;;
12921;SDS011;6528;48.086;16.282;2023-12-04T10:40:35;7.30;;;6.70;;
12921;SDS011;6528;48.086;16.282;2023-12-04T10:43:10;8.03;;;7.23;;
12921;SDS011;6528;48.086;16.282;2023-12-04T10:45:44;8.13;;;7.33;;
12921;SDS011;6528;48.086;16.282;2023-12-04T10:48:16;7.30;;;6.70;;
12921;SDS011;6528;48.086;16.282;2023-12-04T10:50:46;8.47;;;7.67;;
12921;SDS011;6528;48.086;16.282;2023-12-04T10:53:15;7.93;;;7.23;;
12921;SDS011;6528;48.086;16.282;2023-12-04T10:55:44;7.00;;;6.40;;
12921;SDS011;6528;48.086;16.282;2023-12-04T10:58:13;7.03;;;6.43;;
12921;SDS011;6528;48.086;16.282;2023-12-04T11:00:45;8.20;;;7.40;;
12921;SDS011;6528;48.086;16.282;2023-12-04T11:03:25;8.10;;;7.40;;
12921;SDS011;6528;48.086;16.282;2023-12-04T11:06:03;7.10;;;6.50;;
12921;SDS011;6528;48.086;16.282;2023-12-04T11:08:33;7.30;;;6.70;;
12921;SDS011;6528;48.086;16.282;2023-12-04T11:11:04;8.10;;;7.33;;
12921;SDS011;6528;48.086;16.282;2023-12-04T11:13:42;7.03;;;6.47;;
12921;SDS011;6528;48.086;16.282;2023-12-04T11:16:16;7.80;;;7.10;;
12921;SDS011;6528;48.086;16.282;2023-12-04T11:18:56;7.47;;;6.87;;
12921;SDS011;6528;48.086;16.282;2023-12-04T11:21:49;7.23;;;6.63;;
12921;SDS011;6528;48.086;16.282;2023-12-04T11:24:18;7.20;;;6.50;;
12921;SDS011;6528;48.086;16.282;2023-12-04T11:26:48;7.13;;;6.53;;
12921;SDS011;6528;48.086;16.282;2023-12-04T11:29:16;7.57;;;6.93;;
12921;SDS011;6528;48.086;16.282;2023-12-04T11:31:45;6.90;;;6.30;;
12921;SDS011;6528;48.086;16.282;2023-12-04T11:34:13;7.33;;;6.73;;
12921;SDS011;6528;48.086;16.282;2023-12-04T11:36:41;7.00;;;6.30;;
12921;SDS011;6528;48.086;16.282;2023-12-04T11:39:11;7.43;;;6.73;;
12921;SDS011;6528;48.086;16.282;2023-12-04T11:41:41;7.37;;;6.70;;
12921;SDS011;6528;48.086;16.282;2023-12-04T11:44:13;7.37;;;6.67;;
12921;SDS011;6528;48.086;16.282;2023-12-04T11:46:58;7.47;;;6.77;;
12921;SDS011;6528;48.086;16.282;2023-12-04T11:49:32;6.33;;;5.83;;
12921;SDS011;6528;48.086;16.282;2023-12-04T11:52:00;7.10;;;6.40;;
12921;SDS011;6528;48.086;16.282;2023-12-04T11:57:39;6.63;;;6.03;;
12921;SDS011;6528;48.086;16.282;2023-12-04T12:05:39;7.10;;;6.50;;
12921;SDS011;6528;48.086;16.282;2023-12-04T12:08:08;6.90;;;6.30;;
12921;SDS011;6528;48.086;16.282;2023-12-04T12:10:36;6.83;;;6.23;;
12921;SDS011;6528;48.086;16.282;2023-12-04T12:13:04;6.53;;;5.90;;
12921;SDS011;6528;48.086;16.282;2023-12-04T12:15:33;6.47;;;5.93;;
12921;SDS011;6528;48.086;16.282;2023-12-04T12:18:00;7.13;;;6.50;;
12921;SDS011;6528;48.086;16.282;2023-12-04T12:20:28;7.10;;;6.07;;
12921;SDS011;6528;48.086;16.282;2023-12-04T12:22:56;7.10;;;6.50;;
12921;SDS011;6528;48.086;16.282;2023-12-04T12:25:23;7.53;;;6.90;;
12921;SDS011;6528;48.086;16.282;2023-12-04T12:27:53;7.03;;;6.43;;
12921;SDS011;6528;48.086;16.282;2023-12-04T12:30:21;6.90;;;6.30;;
12921;SDS011;6528;48.086;16.282;2023-12-04T12:32:49;6.83;;;6.23;;
12921;SDS011;6528;48.086;16.282;2023-12-04T12:35:18;6.93;;;6.30;;
12921;SDS011;6528;48.086;16.282;2023-12-04T12:37:46;6.53;;;6.03;;
12921;SDS011;6528;48.086;16.282;2023-12-04T12:40:13;6.57;;;6.07;;
12921;SDS011;6528;48.086;16.282;2023-12-04T12:42:41;5.80;;;5.30;;
12921;SDS011;6528;48.086;16.282;2023-12-04T12:45:09;6.20;;;5.70;;
12921;SDS011;6528;48.086;16.282;2023-12-04T12:47:44;6.60;;;6.07;;
12921;SDS011;6528;48.086;16.282;2023-12-04T12:50:13;6.47;;;5.87;;
12921;SDS011;6528;48.086;16.282;2023-12-04T12:52:42;6.10;;;5.60;;
12921;SDS011;6528;48.086;16.282;2023-12-04T12:55:10;6.50;;;5.80;;
12921;SDS011;6528;48.086;16.282;2023-12-04T12:57:37;5.70;;;5.20;;
12921;SDS011;6528;48.086;16.282;2023-12-04T13:00:06;5.80;;;5.40;;
12921;SDS011;6528;48.086;16.282;2023-12-04T13:02:37;5.67;;;5.17;;
12921;SDS011;6528;48.086;16.282;2023-12-04T13:05:05;5.93;;;5.37;;
12921;SDS011;6528;48.086;16.282;2023-12-04T13:07:34;6.00;;;5.50;;
12921;SDS011;6528;48.086;16.282;2023-12-04T13:10:01;5.23;;;4.83;;
12921;SDS011;6528;48.086;16.282;2023-12-04T13:12:31;5.50;;;5.00;;
12921;SDS011;6528;48.086;16.282;2023-12-04T13:15:00;5.87;;;5.37;;
12921;SDS011;6528;48.086;16.282;2023-12-04T13:17:28;5.20;;;4.80;;
12921;SDS011;6528;48.086;16.282;2023-12-04T13:19:56;4.90;;;4.50;;
12921;SDS011;6528;48.086;16.282;2023-12-04T13:22:23;5.73;;;5.33;;
12921;SDS011;6528;48.086;16.282;2023-12-04T13:24:51;5.73;;;5.23;;
12921;SDS011;6528;48.086;16.282;2023-12-04T13:27:18;5.40;;;4.90;;
12921;SDS011;6528;48.086;16.282;2023-12-04T13:29:47;5.90;;;5.40;;
12921;SDS011;6528;48.086;16.282;2023-12-04T13:32:17;5.73;;;5.20;;
12921;SDS011;6528;48.086;16.282;2023-12-04T13:34:44;5.70;;;5.10;;
12921;SDS011;6528;48.086;16.282;2023-12-04T13:37:13;5.17;;;4.77;;
12921;SDS011;6528;48.086;16.282;2023-12-04T13:39:40;4.50;;;4.10;;
12921;SDS011;6528;48.086;16.282;2023-12-04T13:42:24;5.50;;;5.10;;
12921;SDS011;6528;48.086;16.282;2023-12-04T13:45:11;5.70;;;4.83;;
12921;SDS011;6528;48.086;16.282;2023-12-04T13:47:41;5.30;;;4.90;;
12921;SDS011;6528;48.086;16.282;2023-12-04T13:50:10;5.40;;;4.90;;
12921;SDS011;6528;48.086;16.282;2023-12-04T13:52:38;4.53;;;4.10;;
12921;SDS011;6528;48.086;16.282;2023-12-04T13:55:06;5.13;;;4.57;;
12921;SDS011;6528;48.086;16.282;2023-12-04T13:57:47;5.10;;;4.70;;
12921;SDS011;6528;48.086;16.282;2023-12-04T14:00:37;5.03;;;4.53;;
12921;SDS011;6528;48.086;16.282;2023-12-04T14:03:07;4.30;;;4.00;;
12921;SDS011;6528;48.086;16.282;2023-12-04T14:05:35;4.20;;;3.90;;
12921;SDS011;6528;48.086;16.282;2023-12-04T14:08:03;4.20;;;3.90;;
12921;SDS011;6528;48.086;16.282;2023-12-04T14:10:32;4.83;;;4.37;;
12921;SDS011;6528;48.086;16.282;2023-12-04T14:13:01;5.23;;;4.83;;
12921;SDS011;6528;48.086;16.282;2023-12-04T14:15:29;5.00;;;4.60;;
12921;SDS011;6528;48.086;16.282;2023-12-04T14:17:57;4.40;;;4.00;;
12921;SDS011;6528;48.086;16.282;2023-12-04T14:20:24;4.10;;;3.80;;
12921;SDS011;6528;48.086;16.282;2023-12-04T14:22:52;4.60;;;4.20;;
12921;SDS011;6528;48.086;16.282;2023-12-04T14:25:20;4.50;;;4.03;;
12921;SDS011;6528;48.086;16.282;2023-12-04T14:27:47;4.30;;;4.00;;
12921;SDS011;6528;48.086;16.282;2023-12-04T14:30:14;5.03;;;4.63;;
12921;SDS011;6528;48.086;16.282;2023-12-04T14:32:42;4.43;;;4.13;;
12921;SDS011;6528;48.086;16.282;2023-12-04T14:35:14;5.13;;;4.60;;
12921;SDS011;6528;48.086;16.282;2023-12-04T14:37:43;4.50;;;4.20;;
12921;SDS011;6528;48.086;16.282;2023-12-04T14:40:13;4.37;;;4.07;;
12921;SDS011;6528;48.086;16.282;2023-12-04T14:42:43;4.77;;;4.37;;
12921;SDS011;6528;48.086;16.282;2023-12-04T14:45:11;4.93;;;4.50;;
12921;SDS011;6528;48.086;16.282;2023-12-04T14:47:40;4.93;;;4.53;;
12921;SDS011;6528;48.086;16.282;2023-12-04T14:50:08;4.30;;;4.00;;
12921;SDS011;6528;48.086;16.282;2023-12-04T14:52:39;4.50;;;4.10;;
12921;SDS011;6528;48.086;16.282;2023-12-04T14:55:14;4.03;;;3.73;;
12921;SDS011;6528;48.086;16.282;2023-12-04T14:57:51;4.47;;;4.07;;
12921;SDS011;6528;48.086;16.282;2023-12-04T15:00:51;4.03;;;3.63;;
12921;SDS011;6528;48.086;16.282;2023-12-04T15:03:37;4.80;;;4.40;;
12921;SDS011;6528;48.086;16.282;2023-12-04T15:06:24;4.80;;;3.70;;
12921;SDS011;6528;48.086;16.282;2023-12-04T15:09:09;4.23;;;3.93;;